SWA802 KDEN-KMCI
Flight info
| Callsign | SWA802 |
|---|---|
| Flight time | 1h 22m |
| Altitude | 33000 |
| Route | EMMYS8 ZIRKL DPEAK JSONN4 |
| Aircraft | B38M/M-SDE1FGHILORVWXY/HB1 |
Departure
| Time | 2026-05-07 19:55 |
|---|---|
| Airport | Denver International Airport (KDEN) |
Arrival
| Time | 2026-05-07 21:17 |
|---|---|
| Airport | Kansas City International Airport (KMCI) |
| Time | Latitude | Longitude | Altitude | Speed | Heading |
|---|---|---|---|---|---|
| 2026-05-07 19:15 | 39.86355 | -104.66784 | 5388 ft | 0 kts | 180° |
| 2026-05-07 19:38 | 39.86358 | -104.66784 | 5388 ft | 1 kts | 180° |
| 2026-05-07 19:38 | 39.86368 | -104.66784 | 5388 ft | 1 kts | 180° |
| 2026-05-07 19:38 | 39.86377 | -104.66784 | 5388 ft | 1 kts | 180° |
| 2026-05-07 19:39 | 39.86386 | -104.66785 | 5389 ft | 1 kts | 180° |
| 2026-05-07 19:39 | 39.86396 | -104.66785 | 5389 ft | 1 kts | 180° |
| 2026-05-07 19:39 | 39.86406 | -104.66785 | 5386 ft | 1 kts | 180° |
| 2026-05-07 19:39 | 39.86417 | -104.66785 | 5386 ft | 1 kts | 180° |
| 2026-05-07 19:40 | 39.86427 | -104.66785 | 5387 ft | 1 kts | 180° |
| 2026-05-07 19:42 | 39.86425 | -104.66785 | 5387 ft | 1 kts | 180° |
| 2026-05-07 19:42 | 39.86422 | -104.66785 | 5386 ft | 0 kts | 180° |
| 2026-05-07 19:44 | 39.86418 | -104.66786 | 5386 ft | 1 kts | 194° |
| 2026-05-07 19:44 | 39.86414 | -104.66791 | 5386 ft | 1 kts | 232° |
| 2026-05-07 19:44 | 39.86413 | -104.66806 | 5386 ft | 2 kts | 274° |
| 2026-05-07 19:44 | 39.86416 | -104.66843 | 5387 ft | 6 kts | 274° |
| 2026-05-07 19:45 | 39.86423 | -104.66909 | 5389 ft | 9 kts | 289° |
| 2026-05-07 19:45 | 39.86454 | -104.66991 | 5389 ft | 11 kts | 296° |
| 2026-05-07 19:45 | 39.86472 | -104.67099 | 5389 ft | 13 kts | 270° |
| 2026-05-07 19:45 | 39.86473 | -104.67230 | 5389 ft | 16 kts | 271° |
| 2026-05-07 19:46 | 39.86475 | -104.67370 | 5389 ft | 19 kts | 270° |
| 2026-05-07 19:46 | 39.86476 | -104.67434 | 5389 ft | 20 kts | 270° |
| 2026-05-07 19:46 | 39.86476 | -104.67619 | 5389 ft | 22 kts | 270° |
| 2026-05-07 19:46 | 39.86476 | -104.67826 | 5389 ft | 23 kts | 270° |
| 2026-05-07 19:47 | 39.86478 | -104.68033 | 5389 ft | 23 kts | 271° |
| 2026-05-07 19:47 | 39.86432 | -104.68218 | 5386 ft | 22 kts | 251° |
| 2026-05-07 19:47 | 39.86427 | -104.68458 | 5367 ft | 28 kts | 270° |
| 2026-05-07 19:47 | 39.86428 | -104.68564 | 5368 ft | 0 kts | 269° |
| 2026-05-07 19:48 | 39.86427 | -104.68566 | 5370 ft | 1 kts | 269° |
| 2026-05-07 19:48 | 39.86427 | -104.68569 | 5370 ft | 0 kts | 269° |
| 2026-05-07 19:53 | 39.86427 | -104.68575 | 5369 ft | 2 kts | 269° |
| 2026-05-07 19:53 | 39.86427 | -104.68605 | 5368 ft | 5 kts | 269° |
| 2026-05-07 19:53 | 39.86428 | -104.68658 | 5368 ft | 9 kts | 279° |
| 2026-05-07 19:53 | 39.86464 | -104.68718 | 5370 ft | 8 kts | 345° |
| 2026-05-07 19:54 | 39.86532 | -104.68721 | 5369 ft | 13 kts | 360° |
| 2026-05-07 19:54 | 39.86813 | -104.68719 | 5363 ft | 79 kts | 0° |
| 2026-05-07 19:54 | 39.87601 | -104.68713 | 5367 ft | 145 kts | 2° |
| 2026-05-07 19:54 | 39.88772 | -104.68730 | 5554 ft | 183 kts | 351° |
| 2026-05-07 19:55 | 39.90090 | -104.68849 | 6290 ft | 200 kts | 352° |
| 2026-05-07 19:55 | 39.91520 | -104.69030 | 7015 ft | 216 kts | 352° |
| 2026-05-07 19:55 | 39.93115 | -104.68743 | 7434 ft | 254 kts | 19° |
| 2026-05-07 19:55 | 39.94633 | -104.67287 | 7912 ft | 289 kts | 48° |
| 2026-05-07 19:56 | 39.95637 | -104.64953 | 8868 ft | 300 kts | 68° |
| 2026-05-07 19:56 | 39.96105 | -104.62349 | 10114 ft | 297 kts | 82° |
| 2026-05-07 19:56 | 39.96229 | -104.59689 | 11293 ft | 293 kts | 87° |
| 2026-05-07 19:56 | 39.96073 | -104.56920 | 11152 ft | 315 kts | 100° |
| 2026-05-07 19:57 | 39.95747 | -104.54079 | 10989 ft | 318 kts | 96° |
| 2026-05-07 19:57 | 39.95552 | -104.51204 | 10834 ft | 319 kts | 92° |
| 2026-05-07 19:57 | 39.95482 | -104.49285 | 10723 ft | 318 kts | 90° |
| 2026-05-07 19:57 | 39.95444 | -104.45436 | 10528 ft | 317 kts | 88° |
| 2026-05-07 19:58 | 39.95471 | -104.42565 | 10368 ft | 316 kts | 88° |
| 2026-05-07 19:58 | 39.95372 | -104.39668 | 10543 ft | 328 kts | 102° |
| 2026-05-07 19:58 | 39.94754 | -104.36750 | 11236 ft | 342 kts | 105° |
| 2026-05-07 19:58 | 39.94096 | -104.33711 | 11727 ft | 355 kts | 105° |
| 2026-05-07 19:59 | 39.93428 | -104.30612 | 11862 ft | 356 kts | 105° |
| 2026-05-07 19:59 | 39.92759 | -104.27504 | 11926 ft | 356 kts | 105° |
| 2026-05-07 19:59 | 39.92087 | -104.24390 | 11936 ft | 357 kts | 105° |
| 2026-05-07 19:59 | 39.91459 | -104.21303 | 11988 ft | 359 kts | 100° |
| 2026-05-07 20:00 | 39.91172 | -104.19140 | 12474 ft | 359 kts | 99° |
| 2026-05-07 20:00 | 39.90594 | -104.14881 | 13730 ft | 363 kts | 99° |
| 2026-05-07 20:00 | 39.90136 | -104.11621 | 14496 ft | 369 kts | 99° |
| 2026-05-07 20:00 | 39.89663 | -104.08305 | 15272 ft | 374 kts | 99° |
| 2026-05-07 20:01 | 39.89181 | -104.04957 | 16044 ft | 379 kts | 100° |
| 2026-05-07 20:01 | 39.88692 | -104.01567 | 16800 ft | 383 kts | 100° |
| 2026-05-07 20:01 | 39.88196 | -103.98138 | 17547 ft | 388 kts | 100° |
| 2026-05-07 20:01 | 39.87862 | -103.95838 | 18039 ft | 391 kts | 100° |
| 2026-05-07 20:02 | 39.87265 | -103.91138 | 18878 ft | 396 kts | 91° |
| 2026-05-07 20:02 | 39.87345 | -103.88758 | 19300 ft | 396 kts | 82° |
| 2026-05-07 20:02 | 39.87593 | -103.85154 | 19886 ft | 402 kts | 83° |
| 2026-05-07 20:02 | 39.87834 | -103.81504 | 20399 ft | 409 kts | 83° |
| 2026-05-07 20:03 | 39.88086 | -103.77798 | 21020 ft | 412 kts | 83° |
| 2026-05-07 20:03 | 39.88352 | -103.74065 | 21599 ft | 415 kts | 80° |
| 2026-05-07 20:03 | 39.88797 | -103.70352 | 22170 ft | 419 kts | 78° |
| 2026-05-07 20:03 | 39.89249 | -103.66580 | 22748 ft | 423 kts | 78° |
| 2026-05-07 20:04 | 39.89692 | -103.62767 | 23313 ft | 427 kts | 78° |
| 2026-05-07 20:04 | 39.90127 | -103.58978 | 23819 ft | 431 kts | 78° |
| 2026-05-07 20:04 | 39.90570 | -103.55103 | 24299 ft | 434 kts | 78° |
| 2026-05-07 20:04 | 39.91013 | -103.51201 | 24771 ft | 437 kts | 78° |
| 2026-05-07 20:05 | 39.91458 | -103.47274 | 25262 ft | 440 kts | 78° |
| 2026-05-07 20:05 | 39.91904 | -103.43322 | 25749 ft | 442 kts | 78° |
| 2026-05-07 20:05 | 39.92353 | -103.39338 | 26182 ft | 446 kts | 78° |
| 2026-05-07 20:05 | 39.92802 | -103.35328 | 26620 ft | 449 kts | 77° |
| 2026-05-07 20:06 | 39.93254 | -103.31287 | 27060 ft | 452 kts | 77° |
| 2026-05-07 20:06 | 39.93708 | -103.27217 | 27478 ft | 455 kts | 77° |
| 2026-05-07 20:06 | 39.94164 | -103.23117 | 27889 ft | 459 kts | 77° |
| 2026-05-07 20:06 | 39.94622 | -103.18977 | 28309 ft | 462 kts | 77° |
| 2026-05-07 20:07 | 39.95081 | -103.14820 | 28706 ft | 465 kts | 77° |
| 2026-05-07 20:07 | 39.95541 | -103.10637 | 29125 ft | 468 kts | 77° |
| 2026-05-07 20:07 | 39.95996 | -103.06487 | 29550 ft | 470 kts | 77° |
| 2026-05-07 20:07 | 39.96457 | -103.02258 | 29922 ft | 473 kts | 77° |
| 2026-05-07 20:08 | 39.96921 | -102.98001 | 30259 ft | 476 kts | 77° |
| 2026-05-07 20:08 | 39.97385 | -102.93716 | 30599 ft | 478 kts | 77° |
| 2026-05-07 20:08 | 39.97851 | -102.89414 | 30916 ft | 480 kts | 77° |
| 2026-05-07 20:08 | 39.98316 | -102.85095 | 31247 ft | 482 kts | 77° |
| 2026-05-07 20:09 | 39.98782 | -102.80755 | 31585 ft | 484 kts | 77° |
| 2026-05-07 20:09 | 39.99247 | -102.76397 | 31921 ft | 486 kts | 78° |
| 2026-05-07 20:09 | 39.99714 | -102.72015 | 32227 ft | 489 kts | 78° |
| 2026-05-07 20:10 | 40.00648 | -102.63205 | 32927 ft | 491 kts | 78° |
| 2026-05-07 20:10 | 40.01575 | -102.54388 | 32944 ft | 488 kts | 78° |
| 2026-05-07 20:11 | 40.02485 | -102.45669 | 32936 ft | 488 kts | 78° |
| 2026-05-07 20:11 | 40.03395 | -102.36880 | 32953 ft | 489 kts | 78° |
| 2026-05-07 20:12 | 40.04302 | -102.28064 | 32928 ft | 490 kts | 79° |
| 2026-05-07 20:12 | 40.05202 | -102.19247 | 32925 ft | 490 kts | 79° |
| 2026-05-07 20:13 | 40.06096 | -102.10421 | 32927 ft | 493 kts | 79° |
| 2026-05-07 20:13 | 40.07002 | -102.01405 | 32926 ft | 505 kts | 79° |
| 2026-05-07 20:14 | 40.07903 | -101.92357 | 32918 ft | 505 kts | 79° |
| 2026-05-07 20:14 | 40.08805 | -101.83235 | 32914 ft | 505 kts | 80° |
| 2026-05-07 20:15 | 40.09698 | -101.74121 | 32912 ft | 505 kts | 80° |
| 2026-05-07 20:15 | 40.10585 | -101.65006 | 32924 ft | 506 kts | 80° |
| 2026-05-07 20:16 | 40.11468 | -101.55854 | 32907 ft | 508 kts | 80° |
| 2026-05-07 20:16 | 40.12347 | -101.46686 | 32905 ft | 508 kts | 81° |
| 2026-05-07 20:17 | 40.13194 | -101.37508 | 32906 ft | 509 kts | 84° |
| 2026-05-07 20:17 | 40.13350 | -101.28250 | 32917 ft | 511 kts | 88° |
| 2026-05-07 20:18 | 40.13453 | -101.18950 | 32905 ft | 512 kts | 88° |
| 2026-05-07 20:18 | 40.13546 | -101.09697 | 32904 ft | 512 kts | 88° |
| 2026-05-07 20:19 | 40.13633 | -101.00398 | 32907 ft | 512 kts | 88° |
| 2026-05-07 20:19 | 40.13712 | -100.91080 | 32912 ft | 512 kts | 88° |
| 2026-05-07 20:20 | 40.13783 | -100.81777 | 32916 ft | 512 kts | 88° |
| 2026-05-07 20:20 | 40.13847 | -100.72541 | 32923 ft | 512 kts | 88° |
| 2026-05-07 20:21 | 40.13903 | -100.63239 | 32926 ft | 512 kts | 88° |
| 2026-05-07 20:21 | 40.13952 | -100.53927 | 32937 ft | 512 kts | 88° |
| 2026-05-07 20:22 | 40.13994 | -100.44597 | 32923 ft | 513 kts | 89° |
| 2026-05-07 20:22 | 40.14029 | -100.35260 | 32915 ft | 513 kts | 89° |
| 2026-05-07 20:23 | 40.14055 | -100.25935 | 32904 ft | 513 kts | 89° |
| 2026-05-07 20:23 | 40.14075 | -100.16606 | 32920 ft | 514 kts | 89° |
| 2026-05-07 20:24 | 40.14087 | -100.07264 | 32906 ft | 514 kts | 89° |
| 2026-05-07 20:24 | 40.14091 | -99.97932 | 32899 ft | 514 kts | 89° |
| 2026-05-07 20:25 | 40.14088 | -99.88584 | 32897 ft | 514 kts | 89° |
| 2026-05-07 20:25 | 40.14077 | -99.79286 | 32900 ft | 516 kts | 89° |
| 2026-05-07 20:26 | 40.14059 | -99.69881 | 32899 ft | 517 kts | 89° |
| 2026-05-07 20:26 | 40.14033 | -99.60480 | 32895 ft | 517 kts | 89° |
| 2026-05-07 20:27 | 40.13999 | -99.51065 | 32894 ft | 517 kts | 89° |
| 2026-05-07 20:27 | 40.13958 | -99.41654 | 32901 ft | 519 kts | 90° |
| 2026-05-07 20:28 | 40.13910 | -99.32265 | 32901 ft | 520 kts | 90° |
| 2026-05-07 20:28 | 40.13853 | -99.22806 | 32902 ft | 520 kts | 90° |
| 2026-05-07 20:29 | 40.13789 | -99.13358 | 32905 ft | 520 kts | 90° |
| 2026-05-07 20:29 | 40.13717 | -99.03897 | 32902 ft | 521 kts | 90° |
| 2026-05-07 20:30 | 40.13637 | -98.94409 | 32900 ft | 522 kts | 90° |
| 2026-05-07 20:30 | 40.13549 | -98.84917 | 32866 ft | 522 kts | 90° |
| 2026-05-07 20:31 | 40.13454 | -98.75454 | 32906 ft | 525 kts | 90° |
| 2026-05-07 20:31 | 40.13350 | -98.65912 | 32901 ft | 526 kts | 91° |
| 2026-05-07 20:32 | 40.13238 | -98.56348 | 32894 ft | 526 kts | 91° |
| 2026-05-07 20:32 | 40.13118 | -98.46785 | 32897 ft | 526 kts | 91° |
| 2026-05-07 20:33 | 40.12990 | -98.37211 | 32899 ft | 526 kts | 91° |
| 2026-05-07 20:33 | 40.12855 | -98.27645 | 32900 ft | 527 kts | 91° |
| 2026-05-07 20:34 | 40.12711 | -98.18059 | 32894 ft | 528 kts | 91° |
| 2026-05-07 20:34 | 40.12560 | -98.08523 | 32894 ft | 528 kts | 91° |
| 2026-05-07 20:35 | 40.12400 | -97.98927 | 32893 ft | 528 kts | 91° |
| 2026-05-07 20:35 | 40.12233 | -97.89317 | 32899 ft | 529 kts | 91° |
| 2026-05-07 20:36 | 40.12056 | -97.79699 | 32904 ft | 529 kts | 91° |
| 2026-05-07 20:36 | 40.11874 | -97.70145 | 32909 ft | 529 kts | 91° |
| 2026-05-07 20:37 | 40.11682 | -97.60517 | 32903 ft | 529 kts | 91° |
| 2026-05-07 20:37 | 40.11482 | -97.50913 | 32805 ft | 523 kts | 91° |
| 2026-05-07 20:37 | 40.11381 | -97.46207 | 32377 ft | 515 kts | 91° |
| 2026-05-07 20:38 | 40.11280 | -97.41537 | 31803 ft | 512 kts | 91° |
| 2026-05-07 20:38 | 40.11177 | -97.36904 | 31232 ft | 509 kts | 91° |
| 2026-05-07 20:38 | 40.11073 | -97.32282 | 30712 ft | 505 kts | 90° |
| 2026-05-07 20:38 | 40.10969 | -97.27778 | 30250 ft | 501 kts | 90° |
| 2026-05-07 20:39 | 40.10864 | -97.23250 | 29716 ft | 497 kts | 90° |
| 2026-05-07 20:39 | 40.10757 | -97.18762 | 29164 ft | 492 kts | 90° |
| 2026-05-07 20:39 | 40.10649 | -97.14310 | 28703 ft | 486 kts | 90° |
| 2026-05-07 20:39 | 40.10542 | -97.09935 | 28228 ft | 475 kts | 90° |
| 2026-05-07 20:40 | 40.10435 | -97.05648 | 27806 ft | 469 kts | 90° |
| 2026-05-07 20:40 | 40.10328 | -97.01406 | 27338 ft | 465 kts | 89° |
| 2026-05-07 20:40 | 40.10222 | -96.97198 | 26897 ft | 461 kts | 89° |
| 2026-05-07 20:40 | 40.10114 | -96.93020 | 26467 ft | 457 kts | 89° |
| 2026-05-07 20:41 | 40.10007 | -96.88888 | 26025 ft | 453 kts | 89° |
| 2026-05-07 20:41 | 40.09900 | -96.84839 | 25616 ft | 450 kts | 89° |
| 2026-05-07 20:41 | 40.09791 | -96.80767 | 25211 ft | 447 kts | 89° |
| 2026-05-07 20:41 | 40.09681 | -96.76725 | 24791 ft | 444 kts | 89° |
| 2026-05-07 20:42 | 40.09571 | -96.72705 | 24372 ft | 440 kts | 88° |
| 2026-05-07 20:42 | 40.09461 | -96.68723 | 23987 ft | 437 kts | 88° |
| 2026-05-07 20:42 | 40.09350 | -96.64763 | 23591 ft | 434 kts | 88° |
| 2026-05-07 20:42 | 40.09238 | -96.60832 | 23145 ft | 432 kts | 88° |
| 2026-05-07 20:43 | 40.09084 | -96.56933 | 22757 ft | 429 kts | 94° |
| 2026-05-07 20:43 | 40.08365 | -96.53159 | 22409 ft | 427 kts | 105° |
| 2026-05-07 20:43 | 40.07531 | -96.49469 | 22081 ft | 421 kts | 104° |
| 2026-05-07 20:43 | 40.06723 | -96.45812 | 21755 ft | 416 kts | 104° |
| 2026-05-07 20:44 | 40.05926 | -96.42205 | 21424 ft | 412 kts | 104° |
| 2026-05-07 20:44 | 40.05143 | -96.38670 | 21104 ft | 408 kts | 103° |
| 2026-05-07 20:44 | 40.04360 | -96.35136 | 20782 ft | 403 kts | 103° |
| 2026-05-07 20:44 | 40.03583 | -96.31634 | 20474 ft | 399 kts | 103° |
| 2026-05-07 20:45 | 40.02814 | -96.28173 | 20167 ft | 395 kts | 103° |
| 2026-05-07 20:45 | 40.02049 | -96.24740 | 19856 ft | 392 kts | 103° |
| 2026-05-07 20:45 | 40.01292 | -96.21344 | 19552 ft | 388 kts | 103° |
| 2026-05-07 20:45 | 40.00541 | -96.17980 | 19245 ft | 384 kts | 103° |
| 2026-05-07 20:46 | 39.99795 | -96.14643 | 18942 ft | 382 kts | 103° |
| 2026-05-07 20:46 | 39.99053 | -96.11331 | 18644 ft | 381 kts | 103° |
| 2026-05-07 20:46 | 39.98309 | -96.08013 | 18370 ft | 381 kts | 104° |
| 2026-05-07 20:46 | 39.97565 | -96.04705 | 18041 ft | 380 kts | 104° |
| 2026-05-07 20:47 | 39.96826 | -96.01416 | 17705 ft | 376 kts | 104° |
| 2026-05-07 20:47 | 39.96092 | -95.98162 | 17409 ft | 373 kts | 104° |
| 2026-05-07 20:47 | 39.95363 | -95.94930 | 17110 ft | 371 kts | 104° |
| 2026-05-07 20:47 | 39.94634 | -95.91701 | 16814 ft | 371 kts | 104° |
| 2026-05-07 20:48 | 39.93907 | -95.88488 | 16536 ft | 369 kts | 104° |
| 2026-05-07 20:48 | 39.93180 | -95.85282 | 16248 ft | 368 kts | 104° |
| 2026-05-07 20:48 | 39.92457 | -95.82095 | 15963 ft | 364 kts | 104° |
| 2026-05-07 20:48 | 39.91750 | -95.78985 | 15683 ft | 361 kts | 104° |
| 2026-05-07 20:49 | 39.91040 | -95.75863 | 15401 ft | 358 kts | 104° |
| 2026-05-07 20:49 | 39.90329 | -95.72746 | 15122 ft | 359 kts | 104° |
| 2026-05-07 20:49 | 39.89618 | -95.69631 | 14859 ft | 359 kts | 104° |
| 2026-05-07 20:49 | 39.88910 | -95.66533 | 14550 ft | 356 kts | 104° |
| 2026-05-07 20:50 | 39.88207 | -95.63456 | 14277 ft | 352 kts | 104° |
| 2026-05-07 20:50 | 39.87509 | -95.60410 | 14017 ft | 351 kts | 104° |
| 2026-05-07 20:50 | 39.87046 | -95.58391 | 13838 ft | 351 kts | 104° |
| 2026-05-07 20:50 | 39.86349 | -95.55359 | 13528 ft | 349 kts | 104° |
| 2026-05-07 20:51 | 39.85658 | -95.52354 | 13234 ft | 345 kts | 104° |
| 2026-05-07 20:51 | 39.84970 | -95.49363 | 12964 ft | 345 kts | 104° |
| 2026-05-07 20:51 | 39.84280 | -95.46372 | 12702 ft | 344 kts | 104° |
| 2026-05-07 20:51 | 39.83592 | -95.43386 | 12426 ft | 343 kts | 104° |
| 2026-05-07 20:52 | 39.82906 | -95.40419 | 12160 ft | 342 kts | 104° |
| 2026-05-07 20:52 | 39.82196 | -95.37472 | 11907 ft | 340 kts | 110° |
| 2026-05-07 20:52 | 39.80936 | -95.34898 | 11586 ft | 338 kts | 135° |
| 2026-05-07 20:52 | 39.79253 | -95.32795 | 11337 ft | 335 kts | 139° |
| 2026-05-07 20:53 | 39.77568 | -95.30704 | 11057 ft | 335 kts | 139° |
| 2026-05-07 20:53 | 39.75880 | -95.28620 | 10766 ft | 335 kts | 139° |
| 2026-05-07 20:53 | 39.74189 | -95.26540 | 10464 ft | 333 kts | 139° |
| 2026-05-07 20:53 | 39.72529 | -95.24501 | 10162 ft | 331 kts | 139° |
| 2026-05-07 20:54 | 39.70857 | -95.22448 | 9869 ft | 329 kts | 139° |
| 2026-05-07 20:54 | 39.69202 | -95.20419 | 9554 ft | 326 kts | 139° |
| 2026-05-07 20:54 | 39.67558 | -95.18403 | 9227 ft | 323 kts | 139° |
| 2026-05-07 20:54 | 39.65942 | -95.16427 | 8944 ft | 315 kts | 139° |
| 2026-05-07 20:55 | 39.64357 | -95.14487 | 8696 ft | 312 kts | 139° |
| 2026-05-07 20:55 | 39.62785 | -95.12565 | 8406 ft | 309 kts | 139° |
| 2026-05-07 20:55 | 39.61223 | -95.10656 | 8138 ft | 307 kts | 139° |
| 2026-05-07 20:55 | 39.59867 | -95.08534 | 7833 ft | 308 kts | 118° |
| 2026-05-07 20:56 | 39.59087 | -95.05959 | 7542 ft | 306 kts | 109° |
| 2026-05-07 20:56 | 39.58376 | -95.03375 | 7299 ft | 303 kts | 109° |
| 2026-05-07 20:56 | 39.57671 | -95.00812 | 7020 ft | 301 kts | 110° |
| 2026-05-07 20:56 | 39.56973 | -94.98267 | 6750 ft | 299 kts | 110° |
| 2026-05-07 20:57 | 39.56281 | -94.95740 | 6498 ft | 296 kts | 110° |
| 2026-05-07 20:57 | 39.55594 | -94.93234 | 6228 ft | 294 kts | 111° |
| 2026-05-07 20:57 | 39.54911 | -94.90746 | 5970 ft | 290 kts | 111° |
| 2026-05-07 20:57 | 39.54244 | -94.88318 | 5757 ft | 282 kts | 112° |
| 2026-05-07 20:58 | 39.53595 | -94.85937 | 5446 ft | 278 kts | 112° |
| 2026-05-07 20:58 | 39.52965 | -94.83604 | 5175 ft | 269 kts | 112° |
| 2026-05-07 20:58 | 39.52365 | -94.81392 | 4911 ft | 258 kts | 113° |
| 2026-05-07 20:58 | 39.51785 | -94.79247 | 4707 ft | 247 kts | 114° |
| 2026-05-07 20:59 | 39.51231 | -94.77192 | 4495 ft | 237 kts | 114° |
| 2026-05-07 20:59 | 39.50694 | -94.75217 | 4293 ft | 227 kts | 115° |
| 2026-05-07 20:59 | 39.50178 | -94.73322 | 4035 ft | 219 kts | 115° |
| 2026-05-07 20:59 | 39.49462 | -94.71702 | 3811 ft | 199 kts | 143° |
| 2026-05-07 21:00 | 39.48347 | -94.70828 | 3613 ft | 180 kts | 164° |
| 2026-05-07 21:00 | 39.47221 | -94.70262 | 3493 ft | 169 kts | 166° |
| 2026-05-07 21:00 | 39.46129 | -94.69749 | 3421 ft | 166 kts | 168° |
| 2026-05-07 21:00 | 39.45037 | -94.69267 | 3318 ft | 165 kts | 167° |
| 2026-05-07 21:01 | 39.43984 | -94.68925 | 3162 ft | 151 kts | 187° |
| 2026-05-07 21:01 | 39.42967 | -94.69041 | 2822 ft | 143 kts | 191° |
| 2026-05-07 21:01 | 39.42006 | -94.69215 | 2592 ft | 138 kts | 195° |
| 2026-05-07 21:01 | 39.41057 | -94.69465 | 2457 ft | 139 kts | 195° |
| 2026-05-07 21:02 | 39.40115 | -94.69739 | 2412 ft | 138 kts | 197° |
| 2026-05-07 21:02 | 39.39178 | -94.70019 | 2351 ft | 138 kts | 197° |
| 2026-05-07 21:02 | 39.38248 | -94.70297 | 2223 ft | 136 kts | 198° |
| 2026-05-07 21:02 | 39.37302 | -94.70580 | 2014 ft | 150 kts | 197° |
| 2026-05-07 21:03 | 39.36239 | -94.70882 | 1799 ft | 156 kts | 196° |
| 2026-05-07 21:03 | 39.35191 | -94.71162 | 1495 ft | 153 kts | 195° |
| 2026-05-07 21:03 | 39.34097 | -94.71507 | 1298 ft | 173 kts | 196° |
| 2026-05-07 21:03 | 39.32872 | -94.71875 | 1117 ft | 174 kts | 194° |
| 2026-05-07 21:04 | 39.31791 | -94.72202 | 1014 ft | 143 kts | 195° |
| 2026-05-07 21:04 | 39.30925 | -94.72468 | 1075 ft | 129 kts | 196° |
| 2026-05-07 21:04 | 39.29929 | -94.72778 | 1502 ft | 172 kts | 196° |
| 2026-05-07 21:04 | 39.28769 | -94.73086 | 1763 ft | 173 kts | 194° |
| 2026-05-07 21:05 | 39.27550 | -94.73395 | 1821 ft | 182 kts | 194° |
| 2026-05-07 21:05 | 39.26307 | -94.73736 | 1845 ft | 184 kts | 194° |
| 2026-05-07 21:05 | 39.25057 | -94.74054 | 1780 ft | 184 kts | 194° |
| 2026-05-07 21:05 | 39.23798 | -94.74386 | 1744 ft | 180 kts | 193° |
| 2026-05-07 21:06 | 39.22628 | -94.74899 | 1626 ft | 182 kts | 216° |
| 2026-05-07 21:06 | 39.21991 | -94.76222 | 1788 ft | 181 kts | 260° |
| 2026-05-07 21:06 | 39.22123 | -94.77887 | 1739 ft | 192 kts | 277° |
| 2026-05-07 21:06 | 39.22357 | -94.79538 | 2126 ft | 189 kts | 275° |
| 2026-05-07 21:07 | 39.22654 | -94.81234 | 2536 ft | 198 kts | 283° |
| 2026-05-07 21:07 | 39.23492 | -94.82668 | 2599 ft | 211 kts | 325° |
| 2026-05-07 21:07 | 39.24948 | -94.83047 | 2661 ft | 221 kts | 0° |
| 2026-05-07 21:07 | 39.26500 | -94.82840 | 2896 ft | 227 kts | 2° |
| 2026-05-07 21:08 | 39.28090 | -94.82620 | 2933 ft | 230 kts | 0° |
| 2026-05-07 21:08 | 39.29673 | -94.82398 | 2803 ft | 229 kts | 2° |
| 2026-05-07 21:08 | 39.31285 | -94.82170 | 2839 ft | 241 kts | 2° |
| 2026-05-07 21:08 | 39.32980 | -94.81910 | 2866 ft | 246 kts | 2° |
| 2026-05-07 21:09 | 39.34683 | -94.81693 | 2826 ft | 248 kts | 1° |
| 2026-05-07 21:09 | 39.36390 | -94.81503 | 2883 ft | 246 kts | 2° |
| 2026-05-07 21:09 | 39.38111 | -94.81279 | 2809 ft | 247 kts | 360° |
| 2026-05-07 21:09 | 39.39824 | -94.81121 | 2880 ft | 249 kts | 1° |
| 2026-05-07 21:10 | 39.41558 | -94.80889 | 2898 ft | 249 kts | 2° |
| 2026-05-07 21:10 | 39.43266 | -94.80647 | 2824 ft | 249 kts | 2° |
| 2026-05-07 21:10 | 39.44990 | -94.80412 | 2865 ft | 249 kts | 3° |
| 2026-05-07 21:10 | 39.46664 | -94.79903 | 2864 ft | 248 kts | 28° |
| 2026-05-07 21:11 | 39.47780 | -94.78335 | 2874 ft | 232 kts | 70° |
| 2026-05-07 21:11 | 39.47984 | -94.76370 | 2851 ft | 213 kts | 98° |
| 2026-05-07 21:11 | 39.47815 | -94.72517 | 2909 ft | 212 kts | 98° |
| 2026-05-07 21:12 | 39.47729 | -94.70644 | 2881 ft | 205 kts | 98° |
| 2026-05-07 21:12 | 39.47635 | -94.68822 | 2872 ft | 201 kts | 105° |
| 2026-05-07 21:12 | 39.47123 | -94.67240 | 2803 ft | 188 kts | 136° |
| 2026-05-07 21:12 | 39.46170 | -94.66308 | 2785 ft | 156 kts | 168° |
| 2026-05-07 21:13 | 39.45171 | -94.66206 | 2820 ft | 142 kts | 193° |
| 2026-05-07 21:13 | 39.44229 | -94.66519 | 2755 ft | 139 kts | 208° |
| 2026-05-07 21:13 | 39.43362 | -94.67084 | 2467 ft | 145 kts | 211° |
| 2026-05-07 21:13 | 39.42461 | -94.67825 | 2419 ft | 160 kts | 215° |
| 2026-05-07 21:14 | 39.41560 | -94.68607 | 2464 ft | 158 kts | 216° |
| 2026-05-07 21:14 | 39.40650 | -94.69406 | 2557 ft | 156 kts | 207° |
| 2026-05-07 21:14 | 39.39657 | -94.69825 | 2391 ft | 144 kts | 197° |
| 2026-05-07 21:14 | 39.38708 | -94.70102 | 2157 ft | 137 kts | 196° |
| 2026-05-07 21:15 | 39.37795 | -94.70374 | 1967 ft | 136 kts | 201° |
| 2026-05-07 21:15 | 39.36821 | -94.70690 | 1869 ft | 150 kts | 198° |
| 2026-05-07 21:15 | 39.35829 | -94.70988 | 1771 ft | 144 kts | 198° |
| 2026-05-07 21:15 | 39.34857 | -94.71278 | 1452 ft | 142 kts | 195° |
| 2026-05-07 21:16 | 39.33894 | -94.71569 | 1285 ft | 142 kts | 198° |
| 2026-05-07 21:16 | 39.32944 | -94.71852 | 1098 ft | 141 kts | 196° |
| 2026-05-07 21:16 | 39.31994 | -94.72140 | 1002 ft | 133 kts | 194° |
| 2026-05-07 21:16 | 39.31289 | -94.72356 | 1007 ft | 68 kts | 193° |
| 2026-05-07 21:17 | 39.30936 | -94.72441 | 1009 ft | 46 kts | 179° |
| 2026-05-07 21:17 | 39.30717 | -94.72278 | 1013 ft | 16 kts | 109° |
| 2026-05-07 21:17 | 39.30652 | -94.72256 | 1013 ft | 14 kts | 209° |
| 2026-05-07 21:17 | 39.30514 | -94.72307 | 1015 ft | 28 kts | 192° |
| 2026-05-07 21:18 | 39.30281 | -94.72374 | 1018 ft | 40 kts | 192° |
| 2026-05-07 21:18 | 39.30003 | -94.72459 | 1021 ft | 42 kts | 193° |
| 2026-05-07 21:18 | 39.29735 | -94.72539 | 1025 ft | 16 kts | 190° |
| 2026-05-07 21:18 | 39.29730 | -94.72540 | 1025 ft | 0 kts | 190° |